createdAt,value
2022-10-06T00:00:02.128Z,22.6
2022-10-06T00:15:04.919Z,22.6
2022-10-06T00:30:04.861Z,22.6
2022-10-06T00:45:01.798Z,22.6
2022-10-06T01:00:03.190Z,22.6
2022-10-06T01:15:04.831Z,22.5
2022-10-06T01:30:03.772Z,22.5
2022-10-06T01:45:05.838Z,22.5
2022-10-06T02:00:03.156Z,22.4
2022-10-06T02:15:02.798Z,22.4
2022-10-06T02:30:03.997Z,22.3
2022-10-06T02:45:06.062Z,22.2
2022-10-06T03:00:04.835Z,22.2
2022-10-06T03:15:02.759Z,22.1
2022-10-06T03:30:05.985Z,22.1
2022-10-06T03:45:05.284Z,22.1
2022-10-06T04:00:05.196Z,22.1
2022-10-06T04:15:05.026Z,22.1
2022-10-06T04:30:01.901Z,22.1
2022-10-06T04:45:05.737Z,22.1
2022-10-06T05:00:06.031Z,22.1
2022-10-06T05:15:01.797Z,22.1
2022-10-06T05:30:05.148Z,22.1
2022-10-06T05:45:05.108Z,22.1
2022-10-06T06:00:03.010Z,22
2022-10-06T06:15:02.281Z,22.1
2022-10-06T06:30:04.082Z,22.1
2022-10-06T06:45:04.183Z,22.1
2022-10-06T07:00:03.249Z,22
2022-10-06T07:15:05.933Z,22.1
2022-10-06T07:30:04.277Z,22
2022-10-06T07:45:05.319Z,22
2022-10-06T08:00:02.233Z,22
2022-10-06T08:15:04.051Z,22
2022-10-06T08:30:04.090Z,22
2022-10-06T08:45:03.245Z,22
2022-10-06T09:00:05.287Z,22.1
2022-10-06T09:15:03.793Z,22.1
2022-10-06T10:00:03.221Z,22.1
2022-10-06T10:15:06.249Z,22.1
2022-10-06T10:30:02.966Z,22
2022-10-06T11:00:03.867Z,22
2022-10-06T11:15:04.906Z,22
2022-10-06T11:30:02.787Z,22
2022-10-06T11:45:03.973Z,22
2022-10-06T12:00:02.055Z,22.1
2022-10-06T12:15:04.744Z,22.1
2022-10-06T12:30:03.246Z,22.2
2022-10-06T12:45:01.884Z,22.2
2022-10-06T13:00:05.284Z,22.2
2022-10-06T13:15:02.171Z,22.2
2022-10-06T13:30:05.009Z,22.1
2022-10-06T13:45:01.898Z,22.1
2022-10-06T14:00:05.294Z,22.1
2022-10-06T14:15:06.249Z,22.1
2022-10-06T14:30:02.969Z,22.1
2022-10-06T14:45:06.216Z,22.1
2022-10-06T15:00:03.006Z,22.1
2022-10-06T15:15:04.230Z,22.1
2022-10-06T15:30:06.296Z,22.1
2022-10-06T15:45:06.053Z,22.2
2022-10-06T16:00:04.288Z,22.2
2022-10-06T16:15:03.784Z,22.2
2022-10-06T16:30:05.766Z,22.3
2022-10-06T16:45:03.111Z,22.4
2022-10-06T17:00:05.750Z,22.4
2022-10-06T17:15:06.405Z,22.4
2022-10-06T17:30:02.739Z,22.4
2022-10-06T17:45:06.068Z,22.4
2022-10-06T18:00:06.277Z,22.4
2022-10-06T18:30:05.805Z,22.3
2022-10-06T18:45:03.134Z,22.2
2022-10-06T19:15:01.910Z,22.2
2022-10-06T19:30:05.753Z,22.2
2022-10-06T19:45:05.117Z,22.2
2022-10-06T20:00:04.001Z,22.1
2022-10-06T20:15:04.012Z,22.1
2022-10-06T20:30:04.112Z,22
2022-10-06T20:45:03.099Z,21.9
2022-10-06T21:15:05.120Z,21.9
2022-10-06T21:30:05.954Z,21.9
2022-10-06T22:00:05.984Z,21.8
2022-10-06T22:15:06.288Z,21.8
2022-10-06T22:30:06.036Z,21.7
2022-10-06T22:45:04.754Z,21.7
2022-10-06T23:00:02.189Z,21.7
2022-10-06T23:15:03.962Z,21.6
2022-10-06T23:45:05.815Z,21.6
